sensor_id;sensor_type;location;lat;lon;timestamp;P1;durP1;ratioP1;P2;durP2;ratioP2
20794;SDS011;28087;-33.874;151.240;2023-03-01T00:01:47;9.95;;;4.00;;
20794;SDS011;28087;-33.874;151.240;2023-03-01T00:04:22;9.95;;;5.10;;
20794;SDS011;28087;-33.874;151.240;2023-03-01T00:06:59;11.98;;;4.20;;
20794;SDS011;28087;-33.874;151.240;2023-03-01T00:09:37;10.02;;;3.95;;
20794;SDS011;28087;-33.874;151.240;2023-03-01T00:12:15;11.13;;;4.05;;
20794;SDS011;28087;-33.874;151.240;2023-03-01T00:14:51;9.63;;;4.18;;
20794;SDS011;28087;-33.874;151.240;2023-03-01T00:17:27;11.23;;;4.20;;
20794;SDS011;28087;-33.874;151.240;2023-03-01T00:20:03;8.40;;;3.70;;
20794;SDS011;28087;-33.874;151.240;2023-03-01T00:22:40;13.50;;;4.03;;
20794;SDS011;28087;-33.874;151.240;2023-03-01T00:25:16;11.32;;;3.92;;
20794;SDS011;28087;-33.874;151.240;2023-03-01T00:27:53;7.85;;;3.88;;
20794;SDS011;28087;-33.874;151.240;2023-03-01T00:30:30;10.50;;;4.07;;
20794;SDS011;28087;-33.874;151.240;2023-03-01T00:33:07;8.90;;;3.60;;
20794;SDS011;28087;-33.874;151.240;2023-03-01T00:35:43;7.20;;;3.17;;
20794;SDS011;28087;-33.874;151.240;2023-03-01T00:38:25;6.40;;;3.30;;
20794;SDS011;28087;-33.874;151.240;2023-03-01T00:41:34;8.95;;;3.05;;
20794;SDS011;28087;-33.874;151.240;2023-03-01T00:44:31;6.18;;;2.60;;
20794;SDS011;28087;-33.874;151.240;2023-03-01T00:47:33;5.40;;;2.40;;
20794;SDS011;28087;-33.874;151.240;2023-03-01T00:50:27;5.70;;;2.30;;
20794;SDS011;28087;-33.874;151.240;2023-03-01T00:53:28;6.07;;;2.60;;
20794;SDS011;28087;-33.874;151.240;2023-03-01T00:56:36;9.63;;;2.88;;
20794;SDS011;28087;-33.874;151.240;2023-03-01T00:59:45;8.13;;;2.55;;
20794;SDS011;28087;-33.874;151.240;2023-03-01T01:02:48;6.85;;;2.53;;
20794;SDS011;28087;-33.874;151.240;2023-03-01T01:05:54;8.77;;;2.78;;
20794;SDS011;28087;-33.874;151.240;2023-03-01T01:08:59;9.15;;;2.70;;
20794;SDS011;28087;-33.874;151.240;2023-03-01T01:11:46;6.25;;;2.50;;
20794;SDS011;28087;-33.874;151.240;2023-03-01T01:14:48;7.90;;;2.40;;
20794;SDS011;28087;-33.874;151.240;2023-03-01T01:17:49;6.72;;;2.33;;
20794;SDS011;28087;-33.874;151.240;2023-03-01T01:20:55;5.93;;;2.50;;
20794;SDS011;28087;-33.874;151.240;2023-03-01T01:24:03;6.38;;;2.15;;
20794;SDS011;28087;-33.874;151.240;2023-03-01T01:27:10;7.55;;;2.42;;
20794;SDS011;28087;-33.874;151.240;2023-03-01T01:30:12;10.77;;;2.20;;
20794;SDS011;28087;-33.874;151.240;2023-03-01T01:33:17;7.28;;;2.10;;
20794;SDS011;28087;-33.874;151.240;2023-03-01T01:36:17;9.48;;;2.20;;
20794;SDS011;28087;-33.874;151.240;2023-03-01T01:39:23;6.72;;;1.90;;
20794;SDS011;28087;-33.874;151.240;2023-03-01T01:42:31;7.97;;;2.00;;
20794;SDS011;28087;-33.874;151.240;2023-03-01T01:45:29;7.35;;;1.88;;
20794;SDS011;28087;-33.874;151.240;2023-03-01T01:48:38;6.30;;;1.90;;
20794;SDS011;28087;-33.874;151.240;2023-03-01T01:51:41;10.05;;;2.47;;
20794;SDS011;28087;-33.874;151.240;2023-03-01T01:54:40;22.00;;;3.70;;
20794;SDS011;28087;-33.874;151.240;2023-03-01T01:57:48;5.85;;;1.60;;
20794;SDS011;28087;-33.874;151.240;2023-03-01T02:00:59;8.75;;;1.90;;
20794;SDS011;28087;-33.874;151.240;2023-03-01T02:03:59;7.85;;;1.88;;
20794;SDS011;28087;-33.874;151.240;2023-03-01T02:07:03;6.60;;;1.42;;
20794;SDS011;28087;-33.874;151.240;2023-03-01T02:10:12;6.90;;;1.50;;
20794;SDS011;28087;-33.874;151.240;2023-03-01T02:13:04;6.38;;;1.63;;
20794;SDS011;28087;-33.874;151.240;2023-03-01T02:16:11;7.40;;;1.60;;
20794;SDS011;28087;-33.874;151.240;2023-03-01T02:19:19;5.72;;;1.38;;
20794;SDS011;28087;-33.874;151.240;2023-03-01T02:22:31;6.20;;;1.77;;
20794;SDS011;28087;-33.874;151.240;2023-03-01T02:25:40;7.75;;;1.45;;
20794;SDS011;28087;-33.874;151.240;2023-03-01T02:28:44;4.82;;;1.50;;
20794;SDS011;28087;-33.874;151.240;2023-03-01T02:31:49;10.15;;;1.60;;
20794;SDS011;28087;-33.874;151.240;2023-03-01T02:34:57;8.82;;;1.70;;
20794;SDS011;28087;-33.874;151.240;2023-03-01T02:38:09;7.10;;;1.70;;
20794;SDS011;28087;-33.874;151.240;2023-03-01T02:41:12;3.78;;;1.40;;
20794;SDS011;28087;-33.874;151.240;2023-03-01T02:44:06;6.70;;;1.50;;
20794;SDS011;28087;-33.874;151.240;2023-03-01T02:47:14;4.55;;;1.60;;
20794;SDS011;28087;-33.874;151.240;2023-03-01T02:50:22;6.05;;;1.60;;
20794;SDS011;28087;-33.874;151.240;2023-03-01T02:53:48;6.35;;;1.67;;
20794;SDS011;28087;-33.874;151.240;2023-03-01T02:56:58;5.25;;;1.60;;
20794;SDS011;28087;-33.874;151.240;2023-03-01T03:00:07;5.78;;;1.40;;
20794;SDS011;28087;-33.874;151.240;2023-03-01T03:03:17;4.88;;;1.45;;
20794;SDS011;28087;-33.874;151.240;2023-03-01T03:06:19;3.33;;;1.58;;
20794;SDS011;28087;-33.874;151.240;2023-03-01T03:09:12;3.28;;;1.58;;
20794;SDS011;28087;-33.874;151.240;2023-03-01T03:12:19;3.83;;;1.55;;
20794;SDS011;28087;-33.874;151.240;2023-03-01T03:15:25;3.40;;;1.60;;
20794;SDS011;28087;-33.874;151.240;2023-03-01T03:18:34;5.55;;;1.60;;
20794;SDS011;28087;-33.874;151.240;2023-03-01T03:21:41;4.43;;;1.65;;
20794;SDS011;28087;-33.874;151.240;2023-03-01T03:24:48;4.45;;;1.70;;
20794;SDS011;28087;-33.874;151.240;2023-03-01T03:27:48;4.20;;;1.30;;
20794;SDS011;28087;-33.874;151.240;2023-03-01T03:30:57;5.07;;;1.38;;
20794;SDS011;28087;-33.874;151.240;2023-03-01T03:33:59;4.57;;;1.40;;
20794;SDS011;28087;-33.874;151.240;2023-03-01T03:37:15;5.28;;;1.83;;
20794;SDS011;28087;-33.874;151.240;2023-03-01T03:40:36;5.55;;;1.40;;
20794;SDS011;28087;-33.874;151.240;2023-03-01T03:43:36;8.52;;;1.52;;
20794;SDS011;28087;-33.874;151.240;2023-03-01T03:46:45;11.00;;;1.77;;
20794;SDS011;28087;-33.874;151.240;2023-03-01T03:49:52;10.07;;;1.77;;
20794;SDS011;28087;-33.874;151.240;2023-03-01T03:53:00;10.73;;;1.75;;
20794;SDS011;28087;-33.874;151.240;2023-03-01T03:56:05;9.50;;;1.50;;
20794;SDS011;28087;-33.874;151.240;2023-03-01T03:59:01;14.63;;;1.65;;
20794;SDS011;28087;-33.874;151.240;2023-03-01T04:02:09;15.48;;;1.83;;
20794;SDS011;28087;-33.874;151.240;2023-03-01T04:05:11;12.05;;;1.38;;
20794;SDS011;28087;-33.874;151.240;2023-03-01T04:08:15;12.10;;;1.38;;
20794;SDS011;28087;-33.874;151.240;2023-03-01T04:11:18;11.68;;;1.30;;
20794;SDS011;28087;-33.874;151.240;2023-03-01T04:14:26;7.72;;;1.48;;
20794;SDS011;28087;-33.874;151.240;2023-03-01T04:17:37;6.80;;;1.20;;
20794;SDS011;28087;-33.874;151.240;2023-03-01T04:20:44;7.93;;;1.30;;
20794;SDS011;28087;-33.874;151.240;2023-03-01T04:23:46;9.90;;;1.70;;
20794;SDS011;28087;-33.874;151.240;2023-03-01T04:26:55;9.57;;;1.50;;
20794;SDS011;28087;-33.874;151.240;2023-03-01T04:30:03;7.68;;;1.50;;
20794;SDS011;28087;-33.874;151.240;2023-03-01T04:33:12;6.43;;;1.30;;
20794;SDS011;28087;-33.874;151.240;2023-03-01T04:36:14;8.35;;;1.88;;
20794;SDS011;28087;-33.874;151.240;2023-03-01T04:39:17;8.93;;;1.65;;
20794;SDS011;28087;-33.874;151.240;2023-03-01T04:42:26;10.48;;;1.67;;
20794;SDS011;28087;-33.874;151.240;2023-03-01T04:45:25;13.75;;;1.60;;
20794;SDS011;28087;-33.874;151.240;2023-03-01T04:48:34;9.10;;;1.60;;
20794;SDS011;28087;-33.874;151.240;2023-03-01T04:51:42;7.80;;;1.40;;
20794;SDS011;28087;-33.874;151.240;2023-03-01T04:54:45;8.85;;;1.95;;
20794;SDS011;28087;-33.874;151.240;2023-03-01T04:57:54;7.43;;;1.60;;
20794;SDS011;28087;-33.874;151.240;2023-03-01T05:01:00;7.38;;;1.58;;
20794;SDS011;28087;-33.874;151.240;2023-03-01T05:04:12;9.70;;;2.03;;
20794;SDS011;28087;-33.874;151.240;2023-03-01T05:07:18;8.52;;;2.00;;
20794;SDS011;28087;-33.874;151.240;2023-03-01T05:10:18;10.70;;;1.77;;
20794;SDS011;28087;-33.874;151.240;2023-03-01T05:13:25;10.38;;;2.00;;
20794;SDS011;28087;-33.874;151.240;2023-03-01T05:16:28;10.25;;;1.80;;
20794;SDS011;28087;-33.874;151.240;2023-03-01T05:19:31;9.75;;;1.60;;
20794;SDS011;28087;-33.874;151.240;2023-03-01T05:22:38;10.38;;;2.00;;
20794;SDS011;28087;-33.874;151.240;2023-03-01T05:25:41;10.65;;;2.00;;
20794;SDS011;28087;-33.874;151.240;2023-03-01T05:28:50;9.60;;;2.30;;
20794;SDS011;28087;-33.874;151.240;2023-03-01T05:31:57;13.35;;;2.22;;
20794;SDS011;28087;-33.874;151.240;2023-03-01T05:35:06;10.95;;;1.88;;
20794;SDS011;28087;-33.874;151.240;2023-03-01T05:38:13;9.43;;;2.00;;
20794;SDS011;28087;-33.874;151.240;2023-03-01T05:41:20;11.57;;;1.90;;
20794;SDS011;28087;-33.874;151.240;2023-03-01T05:44:21;11.88;;;2.22;;
20794;SDS011;28087;-33.874;151.240;2023-03-01T05:47:29;10.52;;;1.88;;
20794;SDS011;28087;-33.874;151.240;2023-03-01T05:50:41;11.40;;;2.10;;
20794;SDS011;28087;-33.874;151.240;2023-03-01T05:53:49;8.70;;;2.38;;
20794;SDS011;28087;-33.874;151.240;2023-03-01T05:56:55;13.18;;;2.33;;
20794;SDS011;28087;-33.874;151.240;2023-03-01T06:00:00;12.10;;;2.13;;
20794;SDS011;28087;-33.874;151.240;2023-03-01T06:03:09;13.25;;;2.58;;
20794;SDS011;28087;-33.874;151.240;2023-03-01T06:06:19;8.82;;;2.17;;
20794;SDS011;28087;-33.874;151.240;2023-03-01T06:09:25;12.52;;;2.50;;
20794;SDS011;28087;-33.874;151.240;2023-03-01T06:12:31;12.35;;;2.55;;
20794;SDS011;28087;-33.874;151.240;2023-03-01T06:15:34;14.60;;;2.55;;
20794;SDS011;28087;-33.874;151.240;2023-03-01T06:18:39;11.82;;;2.60;;
20794;SDS011;28087;-33.874;151.240;2023-03-01T06:22:09;11.48;;;2.42;;
20794;SDS011;28087;-33.874;151.240;2023-03-01T06:25:09;12.13;;;2.67;;
20794;SDS011;28087;-33.874;151.240;2023-03-01T06:28:17;12.70;;;2.40;;
20794;SDS011;28087;-33.874;151.240;2023-03-01T06:31:26;14.40;;;2.88;;
20794;SDS011;28087;-33.874;151.240;2023-03-01T06:35:00;18.58;;;2.72;;
20794;SDS011;28087;-33.874;151.240;2023-03-01T06:38:08;13.18;;;2.63;;
20794;SDS011;28087;-33.874;151.240;2023-03-01T06:41:16;12.40;;;2.88;;
20794;SDS011;28087;-33.874;151.240;2023-03-01T06:44:22;18.48;;;3.13;;
20794;SDS011;28087;-33.874;151.240;2023-03-01T06:47:24;15.25;;;3.08;;
20794;SDS011;28087;-33.874;151.240;2023-03-01T06:50:31;14.73;;;3.15;;
20794;SDS011;28087;-33.874;151.240;2023-03-01T06:53:41;17.75;;;3.20;;
20794;SDS011;28087;-33.874;151.240;2023-03-01T06:56:49;17.27;;;3.50;;
20794;SDS011;28087;-33.874;151.240;2023-03-01T06:59:43;20.08;;;3.25;;
20794;SDS011;28087;-33.874;151.240;2023-03-01T07:02:49;12.50;;;3.15;;
20794;SDS011;28087;-33.874;151.240;2023-03-01T07:05:57;12.73;;;3.15;;
20794;SDS011;28087;-33.874;151.240;2023-03-01T07:09:06;15.73;;;3.00;;
20794;SDS011;28087;-33.874;151.240;2023-03-01T07:12:13;14.63;;;3.20;;
20794;SDS011;28087;-33.874;151.240;2023-03-01T07:15:09;13.82;;;2.92;;
20794;SDS011;28087;-33.874;151.240;2023-03-01T07:18:16;15.98;;;3.08;;
20794;SDS011;28087;-33.874;151.240;2023-03-01T07:21:22;13.80;;;2.53;;
20794;SDS011;28087;-33.874;151.240;2023-03-01T07:24:31;13.23;;;3.00;;
20794;SDS011;28087;-33.874;151.240;2023-03-01T07:27:38;14.05;;;3.13;;
20794;SDS011;28087;-33.874;151.240;2023-03-01T07:30:44;16.25;;;3.10;;
20794;SDS011;28087;-33.874;151.240;2023-03-01T07:33:50;17.45;;;3.15;;
20794;SDS011;28087;-33.874;151.240;2023-03-01T07:36:53;14.57;;;3.17;;
20794;SDS011;28087;-33.874;151.240;2023-03-01T07:40:02;49.00;;;4.13;;
20794;SDS011;28087;-33.874;151.240;2023-03-01T07:43:09;15.68;;;2.90;;
20794;SDS011;28087;-33.874;151.240;2023-03-01T07:46:13;18.27;;;2.97;;
20794;SDS011;28087;-33.874;151.240;2023-03-01T07:48:55;12.25;;;2.90;;
20794;SDS011;28087;-33.874;151.240;2023-03-01T07:51:31;15.35;;;3.20;;
20794;SDS011;28087;-33.874;151.240;2023-03-01T07:54:22;12.80;;;3.03;;
20794;SDS011;28087;-33.874;151.240;2023-03-01T07:57:27;14.48;;;2.85;;
20794;SDS011;28087;-33.874;151.240;2023-03-01T08:00:20;13.25;;;2.70;;
20794;SDS011;28087;-33.874;151.240;2023-03-01T08:03:08;14.90;;;3.15;;
20794;SDS011;28087;-33.874;151.240;2023-03-01T08:05:49;16.95;;;3.60;;
20794;SDS011;28087;-33.874;151.240;2023-03-01T08:08:26;13.77;;;3.10;;
20794;SDS011;28087;-33.874;151.240;2023-03-01T08:11:03;21.00;;;3.65;;
20794;SDS011;28087;-33.874;151.240;2023-03-01T08:13:57;16.73;;;3.33;;
20794;SDS011;28087;-33.874;151.240;2023-03-01T08:16:48;17.67;;;3.40;;
20794;SDS011;28087;-33.874;151.240;2023-03-01T08:19:39;18.63;;;3.10;;
20794;SDS011;28087;-33.874;151.240;2023-03-01T08:22:31;12.65;;;3.35;;
20794;SDS011;28087;-33.874;151.240;2023-03-01T08:25:07;16.90;;;3.00;;
20794;SDS011;28087;-33.874;151.240;2023-03-01T08:27:43;18.05;;;3.20;;
20794;SDS011;28087;-33.874;151.240;2023-03-01T08:30:23;15.90;;;3.08;;
20794;SDS011;28087;-33.874;151.240;2023-03-01T08:32:59;16.98;;;3.40;;
20794;SDS011;28087;-33.874;151.240;2023-03-01T08:35:35;17.20;;;3.28;;
20794;SDS011;28087;-33.874;151.240;2023-03-01T08:38:14;16.48;;;3.42;;
20794;SDS011;28087;-33.874;151.240;2023-03-01T08:40:49;14.80;;;3.15;;
20794;SDS011;28087;-33.874;151.240;2023-03-01T08:43:26;15.40;;;3.25;;
20794;SDS011;28087;-33.874;151.240;2023-03-01T08:46:03;17.95;;;3.20;;
20794;SDS011;28087;-33.874;151.240;2023-03-01T08:48:39;12.45;;;3.22;;
20794;SDS011;28087;-33.874;151.240;2023-03-01T08:51:15;14.85;;;3.25;;
20794;SDS011;28087;-33.874;151.240;2023-03-01T08:53:53;16.15;;;3.50;;
20794;SDS011;28087;-33.874;151.240;2023-03-01T08:56:28;12.02;;;3.13;;
20794;SDS011;28087;-33.874;151.240;2023-03-01T08:59:04;13.45;;;2.88;;
20794;SDS011;28087;-33.874;151.240;2023-03-01T09:01:41;16.63;;;2.80;;
20794;SDS011;28087;-33.874;151.240;2023-03-01T09:04:17;12.98;;;3.13;;
20794;SDS011;28087;-33.874;151.240;2023-03-01T09:06:53;15.55;;;3.25;;
20794;SDS011;28087;-33.874;151.240;2023-03-01T09:09:29;13.82;;;3.10;;
20794;SDS011;28087;-33.874;151.240;2023-03-01T09:12:04;12.63;;;3.03;;
20794;SDS011;28087;-33.874;151.240;2023-03-01T09:14:40;13.30;;;3.15;;
20794;SDS011;28087;-33.874;151.240;2023-03-01T09:17:17;15.88;;;2.95;;
20794;SDS011;28087;-33.874;151.240;2023-03-01T09:19:52;13.05;;;3.10;;
20794;SDS011;28087;-33.874;151.240;2023-03-01T09:22:31;14.23;;;3.25;;
20794;SDS011;28087;-33.874;151.240;2023-03-01T09:25:08;18.02;;;3.35;;
20794;SDS011;28087;-33.874;151.240;2023-03-01T09:27:44;15.13;;;3.22;;
20794;SDS011;28087;-33.874;151.240;2023-03-01T09:30:19;13.68;;;2.90;;
20794;SDS011;28087;-33.874;151.240;2023-03-01T09:32:59;15.98;;;3.40;;
20794;SDS011;28087;-33.874;151.240;2023-03-01T09:35:35;14.27;;;2.95;;
20794;SDS011;28087;-33.874;151.240;2023-03-01T09:38:17;16.55;;;3.72;;
20794;SDS011;28087;-33.874;151.240;2023-03-01T09:40:55;14.73;;;3.17;;
20794;SDS011;28087;-33.874;151.240;2023-03-01T09:43:31;14.93;;;3.40;;
20794;SDS011;28087;-33.874;151.240;2023-03-01T09:46:17;14.57;;;3.10;;
20794;SDS011;28087;-33.874;151.240;2023-03-01T09:48:56;15.00;;;3.05;;
20794;SDS011;28087;-33.874;151.240;2023-03-01T09:51:35;15.57;;;2.92;;
20794;SDS011;28087;-33.874;151.240;2023-03-01T09:54:10;16.13;;;3.28;;
20794;SDS011;28087;-33.874;151.240;2023-03-01T09:56:57;17.67;;;3.13;;
20794;SDS011;28087;-33.874;151.240;2023-03-01T09:59:48;19.90;;;3.05;;
20794;SDS011;28087;-33.874;151.240;2023-03-01T10:02:38;14.43;;;2.95;;
20794;SDS011;28087;-33.874;151.240;2023-03-01T10:05:24;11.55;;;2.85;;
20794;SDS011;28087;-33.874;151.240;2023-03-01T10:08:19;12.10;;;2.80;;
20794;SDS011;28087;-33.874;151.240;2023-03-01T10:11:00;9.90;;;2.40;;
20794;SDS011;28087;-33.874;151.240;2023-03-01T10:13:52;18.67;;;2.80;;
20794;SDS011;28087;-33.874;151.240;2023-03-01T10:16:37;14.88;;;2.95;;
20794;SDS011;28087;-33.874;151.240;2023-03-01T10:19:20;13.30;;;2.80;;
20794;SDS011;28087;-33.874;151.240;2023-03-01T10:22:00;12.25;;;2.53;;
20794;SDS011;28087;-33.874;151.240;2023-03-01T10:24:42;16.20;;;2.78;;
20794;SDS011;28087;-33.874;151.240;2023-03-01T10:27:21;13.93;;;3.10;;
20794;SDS011;28087;-33.874;151.240;2023-03-01T10:30:02;12.48;;;3.30;;
20794;SDS011;28087;-33.874;151.240;2023-03-01T10:32:46;14.23;;;2.75;;
20794;SDS011;28087;-33.874;151.240;2023-03-01T10:35:24;14.70;;;2.83;;
20794;SDS011;28087;-33.874;151.240;2023-03-01T10:38:06;10.40;;;2.60;;
20794;SDS011;28087;-33.874;151.240;2023-03-01T10:40:54;13.73;;;2.85;;
20794;SDS011;28087;-33.874;151.240;2023-03-01T10:43:43;15.23;;;2.75;;
20794;SDS011;28087;-33.874;151.240;2023-03-01T10:46:44;11.27;;;2.80;;
20794;SDS011;28087;-33.874;151.240;2023-03-01T10:49:32;12.38;;;2.90;;
20794;SDS011;28087;-33.874;151.240;2023-03-01T10:52:16;10.75;;;2.83;;
20794;SDS011;28087;-33.874;151.240;2023-03-01T10:54:56;11.75;;;2.60;;
20794;SDS011;28087;-33.874;151.240;2023-03-01T10:57:34;11.93;;;2.70;;
20794;SDS011;28087;-33.874;151.240;2023-03-01T11:00:23;10.90;;;2.80;;
20794;SDS011;28087;-33.874;151.240;2023-03-01T11:03:03;11.18;;;3.03;;
20794;SDS011;28087;-33.874;151.240;2023-03-01T11:05:51;14.98;;;2.75;;
20794;SDS011;28087;-33.874;151.240;2023-03-01T11:08:40;14.38;;;2.90;;
20794;SDS011;28087;-33.874;151.240;2023-03-01T11:11:23;11.18;;;2.70;;
20794;SDS011;28087;-33.874;151.240;2023-03-01T11:14:05;13.50;;;2.97;;
20794;SDS011;28087;-33.874;151.240;2023-03-01T11:16:58;12.98;;;3.15;;
20794;SDS011;28087;-33.874;151.240;2023-03-01T11:19:36;14.55;;;3.17;;
20794;SDS011;28087;-33.874;151.240;2023-03-01T11:22:22;10.57;;;2.85;;
20794;SDS011;28087;-33.874;151.240;2023-03-01T11:24:58;15.52;;;3.15;;
20794;SDS011;28087;-33.874;151.240;2023-03-01T11:27:40;13.48;;;3.05;;
20794;SDS011;28087;-33.874;151.240;2023-03-01T11:30:19;13.63;;;2.78;;
20794;SDS011;28087;-33.874;151.240;2023-03-01T11:33:03;12.73;;;2.70;;
20794;SDS011;28087;-33.874;151.240;2023-03-01T11:35:46;12.82;;;2.95;;
20794;SDS011;28087;-33.874;151.240;2023-03-01T11:38:29;13.65;;;3.08;;
20794;SDS011;28087;-33.874;151.240;2023-03-01T11:41:10;11.30;;;2.83;;
20794;SDS011;28087;-33.874;151.240;2023-03-01T11:43:51;15.63;;;3.13;;
20794;SDS011;28087;-33.874;151.240;2023-03-01T11:46:40;11.75;;;2.70;;
20794;SDS011;28087;-33.874;151.240;2023-03-01T11:52:30;13.23;;;2.90;;
20794;SDS011;28087;-33.874;151.240;2023-03-01T11:55:17;10.68;;;2.58;;
20794;SDS011;28087;-33.874;151.240;2023-03-01T11:58:03;16.48;;;3.03;;
20794;SDS011;28087;-33.874;151.240;2023-03-01T12:01:01;11.85;;;2.75;;
20794;SDS011;28087;-33.874;151.240;2023-03-01T12:03:54;10.93;;;2.65;;
20794;SDS011;28087;-33.874;151.240;2023-03-01T12:06:56;11.45;;;2.63;;
20794;SDS011;28087;-33.874;151.240;2023-03-01T12:09:38;12.27;;;2.58;;
20794;SDS011;28087;-33.874;151.240;2023-03-01T12:12:33;9.45;;;2.17;;
20794;SDS011;28087;-33.874;151.240;2023-03-01T12:15:28;9.60;;;2.53;;
20794;SDS011;28087;-33.874;151.240;2023-03-01T12:18:16;12.27;;;2.65;;
20794;SDS011;28087;-33.874;151.240;2023-03-01T12:21:11;14.45;;;2.97;;
20794;SDS011;28087;-33.874;151.240;2023-03-01T12:27:15;12.52;;;2.70;;
20794;SDS011;28087;-33.874;151.240;2023-03-01T12:30:05;14.63;;;2.92;;
20794;SDS011;28087;-33.874;151.240;2023-03-01T12:32:55;12.90;;;2.50;;
20794;SDS011;28087;-33.874;151.240;2023-03-01T12:35:43;13.68;;;2.78;;
20794;SDS011;28087;-33.874;151.240;2023-03-01T12:38:32;9.40;;;2.53;;
20794;SDS011;28087;-33.874;151.240;2023-03-01T12:44:20;11.38;;;2.85;;
20794;SDS011;28087;-33.874;151.240;2023-03-01T12:47:07;11.20;;;2.83;;
20794;SDS011;28087;-33.874;151.240;2023-03-01T12:49:54;15.90;;;3.00;;
20794;SDS011;28087;-33.874;151.240;2023-03-01T12:52:35;16.50;;;3.03;;
20794;SDS011;28087;-33.874;151.240;2023-03-01T12:55:18;12.48;;;2.78;;
20794;SDS011;28087;-33.874;151.240;2023-03-01T12:58:01;10.93;;;2.70;;
20794;SDS011;28087;-33.874;151.240;2023-03-01T13:00:45;12.70;;;2.92;;
20794;SDS011;28087;-33.874;151.240;2023-03-01T13:03:26;14.68;;;3.13;;
20794;SDS011;28087;-33.874;151.240;2023-03-01T13:06:10;11.38;;;2.95;;
20794;SDS011;28087;-33.874;151.240;2023-03-01T13:08:54;12.75;;;2.78;;
20794;SDS011;28087;-33.874;151.240;2023-03-01T13:11:40;14.02;;;2.95;;
20794;SDS011;28087;-33.874;151.240;2023-03-01T13:17:30;12.85;;;3.13;;
20794;SDS011;28087;-33.874;151.240;2023-03-01T13:20:21;15.30;;;2.90;;
20794;SDS011;28087;-33.874;151.240;2023-03-01T13:23:03;11.45;;;3.13;;
20794;SDS011;28087;-33.874;151.240;2023-03-01T13:26:03;11.63;;;2.88;;
20794;SDS011;28087;-33.874;151.240;2023-03-01T13:28:48;13.93;;;3.10;;
20794;SDS011;28087;-33.874;151.240;2023-03-01T13:37:36;10.95;;;3.10;;
20794;SDS011;28087;-33.874;151.240;2023-03-01T13:43:29;14.15;;;3.63;;
20794;SDS011;28087;-33.874;151.240;2023-03-01T13:46:11;12.95;;;3.05;;
20794;SDS011;28087;-33.874;151.240;2023-03-01T13:48:52;9.43;;;2.75;;
20794;SDS011;28087;-33.874;151.240;2023-03-01T13:51:29;16.83;;;2.95;;
20794;SDS011;28087;-33.874;151.240;2023-03-01T13:54:09;12.52;;;2.88;;
20794;SDS011;28087;-33.874;151.240;2023-03-01T13:56:47;12.93;;;2.75;;
20794;SDS011;28087;-33.874;151.240;2023-03-01T13:59:24;10.93;;;2.50;;
20794;SDS011;28087;-33.874;151.240;2023-03-01T14:02:00;10.32;;;2.63;;
20794;SDS011;28087;-33.874;151.240;2023-03-01T14:04:36;11.52;;;2.78;;
20794;SDS011;28087;-33.874;151.240;2023-03-01T14:07:12;11.18;;;2.85;;
20794;SDS011;28087;-33.874;151.240;2023-03-01T14:09:52;10.07;;;2.40;;
20794;SDS011;28087;-33.874;151.240;2023-03-01T14:12:36;13.20;;;2.72;;
20794;SDS011;28087;-33.874;151.240;2023-03-01T14:15:22;10.60;;;2.60;;
20794;SDS011;28087;-33.874;151.240;2023-03-01T14:18:03;10.98;;;2.53;;
20794;SDS011;28087;-33.874;151.240;2023-03-01T14:20:43;11.95;;;2.67;;
20794;SDS011;28087;-33.874;151.240;2023-03-01T14:23:23;13.35;;;2.58;;
20794;SDS011;28087;-33.874;151.240;2023-03-01T14:26:00;13.43;;;3.10;;
20794;SDS011;28087;-33.874;151.240;2023-03-01T14:28:35;13.13;;;2.85;;
20794;SDS011;28087;-33.874;151.240;2023-03-01T14:31:36;10.63;;;2.60;;
20794;SDS011;28087;-33.874;151.240;2023-03-01T14:34:21;13.48;;;2.85;;
20794;SDS011;28087;-33.874;151.240;2023-03-01T14:37:09;12.23;;;2.47;;
20794;SDS011;28087;-33.874;151.240;2023-03-01T14:39:51;9.23;;;2.60;;
20794;SDS011;28087;-33.874;151.240;2023-03-01T14:42:28;13.57;;;2.67;;
20794;SDS011;28087;-33.874;151.240;2023-03-01T14:45:05;10.77;;;2.50;;
20794;SDS011;28087;-33.874;151.240;2023-03-01T14:47:48;9.82;;;2.50;;
20794;SDS011;28087;-33.874;151.240;2023-03-01T14:50:24;9.13;;;2.55;;
20794;SDS011;28087;-33.874;151.240;2023-03-01T14:53:02;10.40;;;2.35;;
20794;SDS011;28087;-33.874;151.240;2023-03-01T14:55:40;11.75;;;2.60;;
20794;SDS011;28087;-33.874;151.240;2023-03-01T14:58:20;10.82;;;2.80;;
20794;SDS011;28087;-33.874;151.240;2023-03-01T15:00:56;15.27;;;2.30;;
20794;SDS011;28087;-33.874;151.240;2023-03-01T15:03:38;12.27;;;2.72;;
20794;SDS011;28087;-33.874;151.240;2023-03-01T15:06:17;12.50;;;2.60;;
20794;SDS011;28087;-33.874;151.240;2023-03-01T15:08:57;8.88;;;2.05;;
20794;SDS011;28087;-33.874;151.240;2023-03-01T15:11:33;10.95;;;2.40;;
20794;SDS011;28087;-33.874;151.240;2023-03-01T15:14:27;10.00;;;2.35;;
20794;SDS011;28087;-33.874;151.240;2023-03-01T15:17:28;11.90;;;2.63;;
20794;SDS011;28087;-33.874;151.240;2023-03-01T15:20:15;12.25;;;2.35;;
20794;SDS011;28087;-33.874;151.240;2023-03-01T15:22:56;10.60;;;2.38;;
20794;SDS011;28087;-33.874;151.240;2023-03-01T15:25:37;12.15;;;2.53;;
20794;SDS011;28087;-33.874;151.240;2023-03-01T15:28:18;11.32;;;2.65;;
20794;SDS011;28087;-33.874;151.240;2023-03-01T15:30:55;12.90;;;2.90;;
20794;SDS011;28087;-33.874;151.240;2023-03-01T15:33:37;10.82;;;2.63;;
20794;SDS011;28087;-33.874;151.240;2023-03-01T15:39:34;8.70;;;2.20;;
20794;SDS011;28087;-33.874;151.240;2023-03-01T15:42:13;10.10;;;2.28;;
20794;SDS011;28087;-33.874;151.240;2023-03-01T15:45:19;9.50;;;2.08;;
20794;SDS011;28087;-33.874;151.240;2023-03-01T15:47:57;7.22;;;2.30;;
20794;SDS011;28087;-33.874;151.240;2023-03-01T15:50:36;10.40;;;2.60;;
20794;SDS011;28087;-33.874;151.240;2023-03-01T15:53:15;10.07;;;2.42;;
20794;SDS011;28087;-33.874;151.240;2023-03-01T15:55:51;10.63;;;2.30;;
20794;SDS011;28087;-33.874;151.240;2023-03-01T15:58:26;14.82;;;2.30;;
20794;SDS011;28087;-33.874;151.240;2023-03-01T16:01:02;12.52;;;2.60;;
20794;SDS011;28087;-33.874;151.240;2023-03-01T16:03:44;11.10;;;2.42;;
20794;SDS011;28087;-33.874;151.240;2023-03-01T16:06:20;10.82;;;2.28;;
20794;SDS011;28087;-33.874;151.240;2023-03-01T16:08:57;10.27;;;2.42;;
20794;SDS011;28087;-33.874;151.240;2023-03-01T16:11:35;11.63;;;2.38;;
20794;SDS011;28087;-33.874;151.240;2023-03-01T16:14:11;11.30;;;2.80;;
20794;SDS011;28087;-33.874;151.240;2023-03-01T16:16:47;10.80;;;2.53;;
20794;SDS011;28087;-33.874;151.240;2023-03-01T16:19:22;13.32;;;3.00;;
20794;SDS011;28087;-33.874;151.240;2023-03-01T16:21:58;14.48;;;3.40;;
20794;SDS011;28087;-33.874;151.240;2023-03-01T16:24:36;11.65;;;3.10;;
20794;SDS011;28087;-33.874;151.240;2023-03-01T16:27:11;12.38;;;3.28;;
20794;SDS011;28087;-33.874;151.240;2023-03-01T16:29:47;12.48;;;3.13;;
20794;SDS011;28087;-33.874;151.240;2023-03-01T16:32:22;12.27;;;3.10;;
20794;SDS011;28087;-33.874;151.240;2023-03-01T16:34:58;12.70;;;3.05;;
20794;SDS011;28087;-33.874;151.240;2023-03-01T16:37:34;16.10;;;3.53;;
20794;SDS011;28087;-33.874;151.240;2023-03-01T16:40:17;12.15;;;3.20;;
20794;SDS011;28087;-33.874;151.240;2023-03-01T16:42:54;12.60;;;3.25;;
20794;SDS011;28087;-33.874;151.240;2023-03-01T16:45:32;14.85;;;3.28;;